Time;durP1;ratioP1;P1;durP2;ratioP2;P2;SDS_P1;SDS_P2;PMS_P1;PMS_P2;Temp;Humidity;BMP_temperature;BMP_pressure;BME280_temperature;BME280_humidity;BME280_pressure;Samples;Min_cycle;Max_cycle;Signal;HPM_P1;HPM_P2
2021/12/26 00:01:18;;;;;;;;;30.67;27.67;;;;;10.08;89.53;99944.53;5102252;27;45325;-73
2021/12/26 00:03:44;;;;;;;;;30.33;25.67;;;;;10.06;89.24;99936.75;5103454;27;45362;-73
2021/12/26 00:06:15;;;;;;;;;30.00;25.33;;;;;10.07;89.26;99937.56;5103403;27;45393;-74
2021/12/26 00:08:41;;;;;;;;;23.33;22.33;;;;;10.07;89.40;99940.22;5101788;27;48302;-73
2021/12/26 00:11:07;;;;;;;;;22.67;19.33;;;;;10.07;89.29;99941.06;5102047;27;45360;-73
2021/12/26 00:13:33;;;;;;;;;24.67;21.67;;;;;10.06;89.28;99939.41;5103368;27;45315;-73
2021/12/26 00:16:00;;;;;;;;;25.00;21.33;;;;;10.04;89.28;99943.25;5101957;27;45346;-73
2021/12/26 00:18:26;;;;;;;;;21.00;20.00;;;;;9.98;89.35;99924.44;5101626;27;45352;-73
2021/12/26 00:20:52;;;;;;;;;19.00;19.00;;;;;10.04;89.30;99932.66;5101743;27;45348;-73
2021/12/26 00:23:18;;;;;;;;;21.33;20.33;;;;;9.97;89.53;99920.13;5102046;27;45289;-73
2021/12/26 00:25:44;;;;;;;;;20.33;20.00;;;;;9.93;89.52;99913.56;5103224;27;45459;-73
2021/12/26 00:28:11;;;;;;;;;22.00;21.00;;;;;10.07;89.45;99924.31;5103093;27;47071;-73
2021/12/26 00:30:36;;;;;;;;;17.67;15.67;;;;;10.08;89.49;99929.41;5101502;27;45364;-73
2021/12/26 00:33:03;;;;;;;;;20.00;20.00;;;;;10.07;89.62;99921.66;5102956;27;45264;-73
2021/12/26 00:35:28;;;;;;;;;24.33;21.67;;;;;10.07;89.59;99921.66;5101603;27;45909;-73
2021/12/26 00:37:54;;;;;;;;;26.00;20.33;;;;;10.06;89.59;99918.16;5115156;27;45442;-73
2021/12/26 00:40:21;;;;;;;;;21.33;20.00;;;;;10.12;89.48;99923.72;5123667;27;45266;-73
2021/12/26 00:42:48;;;;;;;;;22.00;20.67;;;;;10.09;89.45;99919.63;5123700;27;45308;-73
2021/12/26 00:45:14;;;;;;;;;21.00;19.00;;;;;10.10;89.52;99914.13;5121879;27;45983;-73
2021/12/26 00:47:40;;;;;;;;;22.00;20.33;;;;;10.14;89.39;99925.19;5121830;27;48242;-73
2021/12/26 00:50:10;;;;;;;;;20.33;18.67;;;;;10.16;89.26;99917.84;5123293;27;45314;-73
2021/12/26 00:52:35;;;;;;;;;21.33;20.00;;;;;10.08;89.09;99910.00;5122152;27;45272;-74
2021/12/26 00:55:02;;;;;;;;;21.33;18.67;;;;;10.10;89.01;99924.75;5123202;27;45234;-73
2021/12/26 00:57:28;;;;;;;;;22.00;21.00;;;;;10.11;89.26;99922.91;5121999;27;47467;-73
2021/12/26 00:59:53;;;;;;;;;23.00;20.67;;;;;10.13;89.35;99915.56;5121504;27;45245;-73
2021/12/26 01:02:19;;;;;;;;;21.33;19.67;;;;;10.07;89.47;99908.38;5123265;27;45191;-73
2021/12/26 01:04:44;;;;;;;;;17.67;17.00;;;;;10.08;89.28;99904.69;5122950;27;45350;-73
2021/12/26 01:07:22;;;;;;;;;24.67;22.33;;;;;10.15;89.79;99910.06;5122872;27;46038;-73
2021/12/26 01:09:51;;;;;;;;;24.67;20.00;;;;;10.13;89.43;99901.47;5123163;27;45551;-73
2021/12/26 01:12:18;;;;;;;;;19.00;19.00;;;;;10.10;89.31;99892.91;5123073;27;45274;-73
2021/12/26 01:14:49;;;;;;;;;21.67;19.00;;;;;10.15;89.27;99908.22;5122810;27;45483;-73
2021/12/26 01:17:18;;;;;;;;;20.67;20.67;;;;;10.07;89.18;99887.97;5121132;27;47513;-73
2021/12/26 01:19:48;;;;;;;;;19.67;18.00;;;;;10.07;89.15;99893.28;5121637;27;45253;-73
2021/12/26 01:22:15;;;;;;;;;25.00;20.33;;;;;10.11;89.14;99904.31;5122981;27;45300;-73
2021/12/26 01:24:43;;;;;;;;;25.67;22.67;;;;;10.13;89.34;99907.59;5121350;27;45923;-73
2021/12/26 01:27:09;;;;;;;;;21.67;19.33;;;;;10.06;89.25;99904.88;5122648;27;46363;-72
2021/12/26 01:29:35;;;;;;;;;20.00;19.00;;;;;10.09;89.14;99909.00;5121267;27;45251;-73
2021/12/26 01:32:02;;;;;;;;;22.00;20.33;;;;;10.10;89.23;99913.31;5121590;27;45326;-73
2021/12/26 01:34:28;;;;;;;;;19.00;17.00;;;;;10.12;89.47;99921.06;5121016;27;45487;-73
2021/12/26 01:36:53;;;;;;;;;22.33;21.00;;;;;10.11;89.36;99922.91;5117086;27;47185;-73
2021/12/26 01:39:18;;;;;;;;;18.33;16.67;;;;;10.01;89.38;99906.47;5101971;27;45319;-73
2021/12/26 01:41:45;;;;;;;;;21.33;19.33;;;;;10.02;89.24;99908.09;5102159;27;45317;-73
2021/12/26 01:44:13;;;;;;;;;18.33;17.33;;;;;10.08;89.03;99918.81;5101820;27;45268;-73
2021/12/26 01:46:39;;;;;;;;;20.67;20.00;;;;;10.07;89.32;99917.16;5101762;27;45294;-73
2021/12/26 01:49:10;;;;;;;;;23.33;19.33;;;;;10.06;89.18;99917.34;5100254;27;45348;-73
2021/12/26 01:51:36;;;;;;;;;20.33;20.00;;;;;10.05;89.31;99913.03;5101827;27;45348;-73
2021/12/26 01:54:07;;;;;;;;;26.00;20.67;;;;;10.05;89.24;99911.22;5101539;27;45409;-73
2021/12/26 01:56:33;;;;;;;;;21.67;20.00;;;;;10.07;89.33;99909.19;5101546;27;46154;-73
2021/12/26 01:59:00;;;;;;;;;22.33;19.67;;;;;10.07;88.95;99908.38;5100078;27;45391;-73
2021/12/26 02:01:26;;;;;;;;;21.00;18.00;;;;;10.04;88.89;99916.72;5100514;27;45285;-73
2021/12/26 02:03:52;;;;;;;;;19.67;19.00;;;;;9.95;89.40;99897.44;5101065;27;45406;-73
2021/12/26 02:06:18;;;;;;;;;14.33;14.00;;;;;9.96;89.15;99899.09;5101468;27;45265;-72
2021/12/26 02:08:43;;;;;;;;;21.33;20.00;;;;;10.03;88.79;99918.53;5101461;27;45338;-73
2021/12/26 02:11:09;;;;;;;;;20.00;17.33;;;;;10.03;89.13;99918.53;5101760;27;45222;-73
2021/12/26 02:13:38;;;;;;;;;23.67;18.67;;;;;10.03;89.27;99923.84;5100545;27;45356;-73
2021/12/26 02:16:06;;;;;;;;;19.33;18.00;;;;;10.05;89.07;99921.00;5101136;27;45668;-73
2021/12/26 02:18:32;;;;;;;;;21.67;19.33;;;;;10.00;88.99;99912.81;5101095;27;45237;-73
2021/12/26 02:21:19;;;;;;;;;18.67;18.00;;;;;9.98;89.29;99913.81;5101445;27;45518;-73
2021/12/26 02:28:58;;;;;;;;;23.67;20.33;;;;;9.93;88.91;99899.47;5100958;27;45448;-73
2021/12/26 02:31:23;;;;;;;;;17.67;16.00;;;;;9.93;89.11;99894.16;5101343;27;45534;-73
2021/12/26 02:33:49;;;;;;;;;17.33;16.33;;;;;9.84;88.83;99883.69;5099580;27;45963;-73
2021/12/26 02:36:14;;;;;;;;;24.00;20.67;;;;;9.88;88.94;99894.75;5100960;27;45268;-73
2021/12/26 02:38:40;;;;;;;;;16.67;16.00;;;;;9.82;89.02;99887.53;5120117;27;45236;-73
2021/12/26 02:41:06;;;;;;;;;21.00;18.33;;;;;9.78;89.05;99888.91;5121727;27;45205;-73
2021/12/26 02:43:33;;;;;;;;;22.00;21.00;;;;;9.71;88.92;99887.03;5120047;27;45350;-73
2021/12/26 02:46:05;;;;;;;;;23.67;20.33;;;;;9.63;89.16;99878.34;5121349;27;45290;-73
2021/12/26 02:48:30;;;;;;;;;19.67;17.00;;;;;9.68;89.25;99887.41;5119732;27;46031;-73
2021/12/26 02:50:57;;;;;;;;;22.33;21.00;;;;;9.69;89.72;99890.88;5121252;27;45376;-73
2021/12/26 02:53:23;;;;;;;;;23.00;19.00;;;;;9.70;89.25;99889.88;5119950;27;46067;-73
2021/12/26 02:55:53;;;;;;;;;21.33;20.33;;;;;9.63;89.15;99881.00;5121195;27;45270;-73
2021/12/26 02:58:19;;;;;;;;;25.00;23.00;;;;;9.73;89.29;99895.63;5121383;27;45316;-73
2021/12/26 03:00:53;;;;;;;;;20.67;19.33;;;;;9.76;89.29;99896.25;5120016;27;45407;-73
2021/12/26 03:03:19;;;;;;;;;18.00;18.00;;;;;9.76;89.24;99902.38;5119505;27;46137;-73
2021/12/26 03:05:46;;;;;;;;;21.33;20.00;;;;;9.68;89.30;99882.09;5121099;27;45298;-73
2021/12/26 03:08:16;;;;;;;;;22.33;18.00;;;;;9.77;88.96;99893.41;5121408;27;45265;-73
2021/12/26 03:10:42;;;;;;;;;19.67;18.33;;;;;9.79;88.91;99903.84;5121277;27;45284;-73
2021/12/26 03:13:10;;;;;;;;;19.00;19.00;;;;;9.78;89.31;99894.22;5121194;27;45275;-74
2021/12/26 03:15:38;;;;;;;;;21.67;20.67;;;;;9.70;89.11;99874.75;5119482;27;46977;-73
2021/12/26 03:18:05;;;;;;;;;19.33;18.33;;;;;9.75;88.99;99889.31;5120913;27;45406;-73
2021/12/26 03:20:37;;;;;;;;;21.67;19.67;;;;;9.74;89.06;99891.13;5121164;27;45336;-73
2021/12/26 03:23:03;;;;;;;;;24.00;19.67;;;;;9.71;89.31;99884.38;5119005;27;45329;-73
2021/12/26 03:25:29;;;;;;;;;24.33;22.33;;;;;9.69;89.33;99888.22;5118748;27;48254;-73
2021/12/26 03:27:55;;;;;;;;;26.67;22.00;;;;;9.75;89.41;99894.63;5120855;27;45395;-73
2021/12/26 03:30:25;;;;;;;;;25.00;21.67;;;;;9.69;89.05;99880.25;5120969;27;45404;-73
2021/12/26 03:32:51;;;;;;;;;23.67;22.00;;;;;9.79;89.16;99895.88;5120740;27;45300;-73
2021/12/26 03:35:18;;;;;;;;;22.33;21.33;;;;;9.76;89.06;99883.78;5120657;27;45308;-74
2021/12/26 03:37:44;;;;;;;;;23.00;21.33;;;;;9.76;89.50;99883.78;5109408;27;45239;-73
2021/12/26 03:40:11;;;;;;;;;22.00;17.33;;;;;9.80;88.97;99892.22;5098853;27;45332;-73
2021/12/26 03:42:37;;;;;;;;;22.33;20.00;;;;;9.76;89.22;99877.69;5100159;27;45291;-73
2021/12/26 03:45:05;;;;;;;;;25.67;23.33;;;;;9.76;89.20;99875.84;5098321;27;47411;-73
2021/12/26 03:47:31;;;;;;;;;26.67;25.00;;;;;9.83;88.98;99881.22;5099919;27;45375;-73
2021/12/26 03:49:57;;;;;;;;;26.33;24.33;;;;;9.86;89.18;99886.16;5100214;27;45285;-73
2021/12/26 03:52:24;;;;;;;;;23.00;21.33;;;;;9.82;89.08;99880.38;5098411;27;46884;-73
2021/12/26 03:54:51;;;;;;;;;25.67;24.67;;;;;9.81;88.92;99873.44;5099916;27;46040;-73
2021/12/26 03:57:16;;;;;;;;;27.67;26.33;;;;;9.84;89.06;99878.38;5099790;27;45353;-73
2021/12/26 03:59:41;;;;;;;;;24.33;23.00;;;;;9.71;88.83;99857.84;5100016;27;45536;-73
2021/12/26 04:02:07;;;;;;;;;27.67;26.00;;;;;9.87;88.91;99879.81;5098402;27;45634;-73
2021/12/26 04:04:32;;;;;;;;;24.67;24.67;;;;;9.87;89.06;99874.50;5098271;27;48019;-73
2021/12/26 04:06:58;;;;;;;;;24.33;23.33;;;;;9.83;89.05;99866.13;5099895;27;45327;-73
2021/12/26 04:09:23;;;;;;;;;27.33;27.00;;;;;9.89;88.84;99875.16;5098571;27;45596;-73
2021/12/26 04:11:49;;;;;;;;;26.67;26.33;;;;;9.84;89.00;99867.75;5098421;27;46711;-73
2021/12/26 04:14:16;;;;;;;;;28.33;26.00;;;;;9.83;88.93;99862.63;5099675;27;46088;-74
2021/12/26 04:16:41;;;;;;;;;32.67;30.67;;;;;9.87;88.81;99868.41;5099782;27;45245;-73
2021/12/26 04:19:07;;;;;;;;;25.00;23.00;;;;;9.76;88.81;99853.81;5099673;27;45276;-73
2021/12/26 04:21:32;;;;;;;;;27.67;25.33;;;;;9.83;88.94;99858.16;5098315;27;46343;-73
2021/12/26 04:23:59;;;;;;;;;34.67;30.00;;;;;9.91;88.75;99867.00;5098204;27;47400;-74
2021/12/26 04:26:25;;;;;;;;;34.25;28.50;;;;;9.91;88.72;99867.00;5099549;27;45409;-73
2021/12/26 04:28:50;;;;;;;;;32.75;31.75;;;;;9.91;89.00;99865.16;5098123;27;45369;-73
2021/12/26 04:31:16;;;;;;;;;31.25;29.50;;;;;9.86;88.67;99859.59;5098296;27;46612;-73
2021/12/26 04:33:42;;;;;;;;;31.00;26.67;;;;;9.87;88.65;99861.22;5097829;27;45961;-73
2021/12/26 04:36:08;;;;;;;;;30.50;24.75;;;;;9.90;88.63;99858.19;5100305;27;45372;-73
2021/12/26 04:38:33;;;;;;;;;25.67;25.67;;;;;9.89;88.94;99861.88;5119661;27;45294;-73
2021/12/26 04:40:59;;;;;;;;;25.67;25.00;;;;;9.82;88.68;99842.44;5123621;27;45296;-74
2021/12/26 04:43:26;;;;;;;;;31.33;29.00;;;;;9.85;89.21;99844.69;5121924;27;45537;-73
2021/12/26 04:45:51;;;;;;;;;26.00;25.00;;;;;9.89;88.85;99853.91;5123620;27;45281;-73
2021/12/26 04:48:17;;;;;;;;;29.75;27.25;;;;;9.89;88.48;99856.56;5123663;27;45272;-73
2021/12/26 04:50:43;;;;;;;;;30.33;26.67;;;;;9.90;88.65;99860.03;5123433;27;45600;-73
2021/12/26 04:53:09;;;;;;;;;33.00;27.67;;;;;9.89;88.69;99859.22;5123294;27;46218;-74
2021/12/26 04:55:34;;;;;;;;;31.33;28.33;;;;;9.89;88.89;99856.56;5123353;27;45305;-73
2021/12/26 04:58:00;;;;;;;;;25.67;24.33;;;;;9.88;88.88;99857.59;5121946;27;45352;-73
2021/12/26 05:00:28;;;;;;;;;32.33;28.33;;;;;9.87;88.73;99855.94;5121811;27;45712;-73
2021/12/26 05:02:54;;;;;;;;;27.33;25.67;;;;;9.80;88.66;99841.78;5122974;27;45371;-73
2021/12/26 05:05:20;;;;;;;;;31.33;27.00;;;;;9.84;89.05;99858.97;5123207;27;45318;-73
2021/12/26 05:07:46;;;;;;;;;31.00;28.33;;;;;9.76;88.96;99838.69;5123238;27;45211;-73
2021/12/26 05:10:14;;;;;;;;;29.00;26.33;;;;;9.79;89.09;99848.13;5121861;27;45466;-73
2021/12/26 05:12:40;;;;;;;;;35.75;31.50;;;;;9.77;88.70;99845.66;5121535;27;47697;-73
2021/12/26 05:15:08;;;;;;;;;27.33;25.67;;;;;9.75;88.91;99845.00;5122874;27;45330;-73
2021/12/26 05:17:34;;;;;;;;;29.33;28.67;;;;;9.72;89.18;99834.78;5121569;27;45365;-73
2021/12/26 05:20:00;;;;;;;;;26.33;25.33;;;;;9.65;88.72;99823.28;5122825;27;45582;-73
2021/12/26 05:22:25;;;;;;;;;32.67;29.33;;;;;9.74;88.96;99846.03;5122963;27;45291;-73
2021/12/26 05:24:51;;;;;;;;;34.75;33.00;;;;;9.75;89.27;99846.84;5122971;27;45245;-73
2021/12/26 05:27:16;;;;;;;;;36.25;32.50;;;;;9.67;89.19;99823.94;5123074;27;45272;-73
2021/12/26 05:29:42;;;;;;;;;37.75;34.25;;;;;9.77;89.03;99839.50;5121384;27;45911;-74
2021/12/26 05:32:07;;;;;;;;;32.50;31.00;;;;;9.74;89.05;99830.09;5121046;27;47592;-73
2021/12/26 05:34:33;;;;;;;;;30.67;27.33;;;;;9.75;89.09;99831.75;5121551;27;45230;-73
2021/12/26 05:36:58;;;;;;;;;32.25;30.75;;;;;9.75;89.06;99833.59;5118028;27;45269;-73
2021/12/26 05:39:24;;;;;;;;;28.00;26.33;;;;;9.70;89.21;99816.38;5100749;27;46063;-73
2021/12/26 05:41:49;;;;;;;;;28.33;26.67;;;;;9.71;89.16;99828.66;5100713;27;47095;-73
2021/12/26 05:44:15;;;;;;;;;34.67;30.67;;;;;9.72;89.16;99822.34;5100410;27;45661;-73
2021/12/26 05:46:40;;;;;;;;;30.67;30.00;;;;;9.70;89.06;99821.69;5101055;27;45471;-73
2021/12/26 05:49:06;;;;;;;;;30.33;29.00;;;;;9.72;89.37;99827.63;5100292;27;47005;-73
2021/12/26 05:51:32;;;;;;;;;31.33;29.67;;;;;9.71;88.97;99822.53;5101825;27;46437;-73
2021/12/26 05:53:57;;;;;;;;;25.67;23.33;;;;;9.63;89.28;99812.84;5101711;27;45316;-73
2021/12/26 05:56:23;;;;;;;;;27.00;25.33;;;;;9.67;89.97;99822.06;5101837;27;45442;-73
2021/12/26 05:58:48;;;;;;;;;24.00;23.67;;;;;9.64;89.42;99813.69;5101641;27;45336;-73
2021/12/26 06:01:14;;;;;;;;;26.00;26.00;;;;;9.65;89.46;99810.84;5100356;27;47275;-73
2021/12/26 06:03:40;;;;;;;;;20.00;19.67;;;;;9.67;88.85;99813.31;5099968;27;46007;-73
2021/12/26 06:06:05;;;;;;;;;23.33;22.33;;;;;9.72;89.36;99821.50;5101779;27;45229;-73
2021/12/26 06:08:31;;;;;;;;;25.00;22.67;;;;;9.71;89.45;99817.22;5101617;27;45233;-73
2021/12/26 06:10:57;;;;;;;;;20.67;20.67;;;;;9.72;89.57;99822.34;5101495;27;46628;-73
2021/12/26 06:13:22;;;;;;;;;22.00;19.33;;;;;9.70;88.82;99819.03;5099888;27;45614;-73
2021/12/26 06:15:48;;;;;;;;;20.33;19.00;;;;;9.68;89.42;99821.09;5101503;27;45943;-73
2021/12/26 06:18:13;;;;;;;;;23.00;17.67;;;;;9.66;89.63;99820.44;5099833;27;45350;-73
2021/12/26 06:20:39;;;;;;;;;19.33;16.67;;;;;9.69;89.24;99814.75;5100102;27;46644;-74
2021/12/26 06:23:04;;;;;;;;;16.67;16.33;;;;;9.71;89.28;99820.69;5101398;27;45316;-74
2021/12/26 06:25:30;;;;;;;;;14.00;13.00;;;;;9.74;89.45;99816.84;5101572;27;45311;-73
2021/12/26 06:27:56;;;;;;;;;16.33;16.33;;;;;9.67;89.41;99802.69;5101176;27;45425;-73
2021/12/26 06:30:21;;;;;;;;;16.33;14.33;;;;;9.72;89.48;99805.59;5101077;27;45951;-73
2021/12/26 06:32:47;;;;;;;;;17.67;16.67;;;;;9.77;89.51;99818.28;5099656;27;45355;-74
2021/12/26 06:35:12;;;;;;;;;17.00;16.00;;;;;9.76;89.33;99811.34;5099885;27;45477;-74
2021/12/26 06:37:38;;;;;;;;;14.00;12.67;;;;;9.78;89.46;99817.25;5109837;27;46046;-73
2021/12/26 06:40:05;;;;;;;;;13.00;12.00;;;;;9.77;89.38;99807.66;5120335;27;47105;-73
2021/12/26 06:42:32;;;;;;;;;14.00;14.00;;;;;9.75;89.43;99807.06;5121815;27;45231;-73
2021/12/26 06:44:58;;;;;;;;;13.33;12.67;;;;;9.69;89.22;99795.34;5120444;27;45337;-73
2021/12/26 06:47:24;;;;;;;;;11.67;11.33;;;;;9.69;89.52;99809.44;5119857;27;45236;-73
2021/12/26 06:49:50;;;;;;;;;13.00;13.00;;;;;9.63;89.73;99790.81;5121605;27;46352;-73
2021/12/26 06:52:15;;;;;;;;;12.33;12.00;;;;;9.74;89.61;99811.53;5119739;27;45499;-74
2021/12/26 06:54:41;;;;;;;;;13.33;13.00;;;;;9.67;89.65;99806.16;5121738;27;45415;-73
2021/12/26 06:57:07;;;;;;;;;12.33;11.67;;;;;9.72;89.81;99813.53;5120128;27;47377;-74
2021/12/26 06:59:33;;;;;;;;;13.33;12.33;;;;;9.73;89.77;99812.56;5120994;27;45399;-73
2021/12/26 07:01:58;;;;;;;;;15.67;14.00;;;;;9.71;89.83;99806.59;5121133;27;45402;-74
2021/12/26 07:04:24;;;;;;;;;14.00;12.67;;;;;9.69;89.68;99808.63;5121300;27;45383;-73
2021/12/26 07:06:49;;;;;;;;;14.33;11.00;;;;;9.71;90.01;99811.91;5121243;27;45304;-73
2021/12/26 07:09:15;;;;;;;;;13.67;13.67;;;;;9.72;89.85;99814.38;5119894;27;45865;-73
2021/12/26 07:11:41;;;;;;;;;17.33;15.33;;;;;9.75;89.93;99809.72;5121281;27;45245;-73
2021/12/26 07:14:06;;;;;;;;;17.00;15.33;;;;;9.76;89.92;99808.69;5119923;27;45269;-73
2021/12/26 07:16:32;;;;;;;;;14.67;14.00;;;;;9.78;89.96;99804.00;5119687;27;46036;-73
2021/12/26 07:18:57;;;;;;;;;14.33;14.00;;;;;9.79;89.80;99810.97;5119562;27;48045;-73
2021/12/26 07:21:22;;;;;;;;;18.33;15.00;;;;;9.72;89.90;99801.09;5121332;27;45261;-72
2021/12/26 07:23:48;;;;;;;;;11.33;10.67;;;;;9.76;90.43;99817.44;5119871;27;46044;-73
2021/12/26 07:26:13;;;;;;;;;14.33;13.00;;;;;9.77;90.11;99807.66;5121109;27;45195;-72
2021/12/26 07:28:39;;;;;;;;;17.67;17.00;;;;;9.78;90.00;99818.09;5119529;27;46232;-74
2021/12/26 07:31:04;;;;;;;;;13.00;13.00;;;;;9.78;89.97;99818.09;5121039;27;45276;-74
2021/12/26 07:33:30;;;;;;;;;15.00;14.00;;;;;9.72;89.84;99810.88;5119489;27;45427;-74
2021/12/26 07:35:55;;;;;;;;;15.33;14.33;;;;;9.83;90.06;99828.13;5119344;27;46887;-74
2021/12/26 07:38:21;;;;;;;;;14.33;13.00;;;;;9.79;90.21;99825.03;5104237;27;45282;-74
2021/12/26 07:40:47;;;;;;;;;14.67;14.67;;;;;9.82;90.01;99826.50;5100219;27;45286;-73
2021/12/26 07:43:13;;;;;;;;;18.00;17.00;;;;;9.86;90.05;99830.41;5100478;27;45304;-74
2021/12/26 07:45:39;;;;;;;;;17.33;16.00;;;;;9.81;89.97;99822.19;5098666;27;46817;-76
2021/12/26 07:48:05;;;;;;;;;18.00;17.33;;;;;9.91;90.24;99832.50;5099791;27;45413;-76
2021/12/26 07:50:30;;;;;;;;;18.33;17.33;;;;;9.90;89.93;99826.34;5098870;27;46001;-75
2021/12/26 07:53:02;;;;;;;;;17.00;15.67;;;;;9.88;90.02;99823.09;5097664;27;45615;-74
2021/12/26 07:55:27;;;;;;;;;19.67;17.00;;;;;9.97;89.81;99829.88;5098584;27;45348;-75
2021/12/26 07:57:53;;;;;;;;;16.67;15.00;;;;;9.92;90.13;99818.19;5097997;27;45685;-77
2021/12/26 08:00:19;;;;;;;;;17.33;16.00;;;;;10.00;90.08;99838.47;5099744;27;45378;-75
2021/12/26 08:02:45;;;;;;;;;19.67;19.33;;;;;10.04;90.14;99840.56;5098712;27;45348;-76
2021/12/26 08:05:10;;;;;;;;;19.00;16.00;;;;;10.06;90.20;99832.41;5099545;27;45325;-75
2021/12/26 08:07:36;;;;;;;;;17.67;17.67;;;;;10.13;89.94;99837.75;5098220;27;47003;-75
2021/12/26 08:10:04;;;;;;;;;13.67;13.33;;;;;10.13;89.77;99835.91;5092855;27;46060;-75
2021/12/26 08:12:29;;;;;;;;;19.00;18.00;;;;;10.07;89.81;99831.38;5099018;27;45270;-75
2021/12/26 08:14:55;;;;;;;;;21.00;17.33;;;;;10.14;90.02;99834.09;5085941;27;45586;-74
2021/12/26 08:17:21;;;;;;;;;18.67;17.00;;;;;10.10;89.87;99833.66;5101410;27;48003;-75
2021/12/26 08:19:46;;;;;;;;;15.33;15.00;;;;;10.10;90.09;99834.47;5101720;27;45378;-74
2021/12/26 08:22:11;;;;;;;;;15.67;14.67;;;;;10.06;89.64;99827.09;5102024;27;45450;-75
2021/12/26 08:24:37;;;;;;;;;20.00;19.00;;;;;10.06;89.94;99835.84;5103052;27;45333;-75
2021/12/26 08:27:03;;;;;;;;;19.33;19.33;;;;;10.19;90.04;99855.56;5101785;27;47093;-75
2021/12/26 08:29:29;;;;;;;;;21.00;19.67;;;;;10.15;90.19;99841.03;5102095;27;45426;-73
2021/12/26 08:31:57;;;;;;;;;19.00;19.00;;;;;10.22;89.93;99858.66;5095743;27;45369;-74
2021/12/26 08:34:23;;;;;;;;;24.67;24.00;;;;;10.25;90.02;99859.28;5091374;27;45464;-73
2021/12/26 08:36:57;;;;;;;;;26.33;23.67;;;;;10.19;89.82;99836.97;5089419;27;48472;-73
2021/12/26 08:39:23;;;;;;;;;28.67;25.00;;;;;10.25;90.27;99851.31;5091341;27;45435;-74
2021/12/26 08:41:48;;;;;;;;;25.33;22.00;;;;;10.26;90.05;99852.97;5097263;27;45391;-74
2021/12/26 08:44:16;;;;;;;;;22.67;22.00;;;;;10.34;90.00;99864.25;5092121;27;45243;-73
2021/12/26 08:46:43;;;;;;;;;30.67;28.67;;;;;10.38;90.12;99861.22;5096703;27;47140;-74
2021/12/26 08:49:09;;;;;;;;;21.33;21.00;;;;;10.41;90.00;99869.59;5088061;27;45784;-73
2021/12/26 08:51:34;;;;;;;;;24.00;21.00;;;;;10.30;89.90;99849.69;5091844;27;45350;-74
2021/12/26 08:54:02;;;;;;;;;22.33;20.67;;;;;10.33;90.07;99849.31;5104405;27;46709;-74
2021/12/26 08:56:28;;;;;;;;;24.67;23.00;;;;;10.44;90.03;99871.88;5089762;27;46065;-74
2021/12/26 08:58:53;;;;;;;;;24.33;21.33;;;;;10.46;90.03;99864.56;5091557;27;45384;-75
2021/12/26 09:01:19;;;;;;;;;21.33;21.33;;;;;10.47;89.99;99870.69;5095822;27;45424;-74
2021/12/26 09:03:44;;;;;;;;;13.67;11.67;;;;;10.51;90.07;99871.13;5088889;27;45983;-75
2021/12/26 09:06:10;;;;;;;;;17.67;17.33;;;;;10.48;90.06;99862.53;5098958;27;47118;-74
2021/12/26 09:08:35;;;;;;;;;20.00;19.00;;;;;10.60;90.19;99872.63;5097289;27;45367;-74
2021/12/26 09:11:00;;;;;;;;;23.67;20.67;;;;;10.64;90.25;99879.19;5089587;27;45506;-74
2021/12/26 09:13:26;;;;;;;;;19.00;18.00;;;;;10.65;89.80;99880.00;5098577;27;46118;-74
2021/12/26 09:15:51;;;;;;;;;20.67;18.67;;;;;10.67;89.75;99883.28;5089360;27;45327;-75
2021/12/26 09:18:17;;;;;;;;;18.00;18.00;;;;;10.67;89.66;99884.09;5089772;27;45369;-75
2021/12/26 09:20:42;;;;;;;;;19.67;19.67;;;;;10.62;89.76;99870.56;5083603;27;45270;-75
2021/12/26 09:23:07;;;;;;;;;21.33;20.00;;;;;10.66;89.78;99882.47;5100564;27;45790;-74
2021/12/26 09:25:33;;;;;;;;;23.00;21.00;;;;;10.68;89.90;99885.72;5120388;27;45397;-74
2021/12/26 09:27:58;;;;;;;;;22.00;20.00;;;;;10.70;89.96;99893.50;5112862;27;45411;-75
2021/12/26 09:30:24;;;;;;;;;19.33;17.00;;;;;10.71;89.77;99892.47;5101589;27;45401;-75
2021/12/26 09:32:50;;;;;;;;;20.00;19.00;;;;;10.69;89.76;99894.53;5101965;27;45307;-75
2021/12/26 09:35:16;;;;;;;;;19.67;19.33;;;;;10.68;89.80;99887.56;5100830;27;48718;-75
2021/12/26 09:37:43;;;;;;;;;24.00;20.00;;;;;10.76;89.90;99905.19;5102537;27;45395;-75
2021/12/26 09:40:10;;;;;;;;;19.33;17.67;;;;;10.73;89.87;99893.13;5100636;27;45234;-75
2021/12/26 09:42:37;;;;;;;;;21.33;17.67;;;;;10.78;89.93;99900.50;5101727;27;45357;-75
2021/12/26 09:45:05;;;;;;;;;17.33;16.33;;;;;10.80;89.96;99898.47;5099041;27;45548;-75
2021/12/26 09:47:30;;;;;;;;;26.00;22.33;;;;;10.83;89.85;99896.25;5096818;27;45210;-75
2021/12/26 09:49:56;;;;;;;;;22.33;21.00;;;;;10.89;90.10;99899.94;5083627;27;45214;-76
2021/12/26 09:52:22;;;;;;;;;23.33;23.00;;;;;10.94;89.73;99896.69;5101296;27;45171;-76
2021/12/26 09:54:47;;;;;;;;;24.00;21.33;;;;;10.97;89.80;99896.31;5100239;27;47745;-75
2021/12/26 09:57:13;;;;;;;;;24.67;24.67;;;;;11.03;89.32;99900.00;5100456;27;45249;-75
2021/12/26 09:59:40;;;;;;;;;21.00;19.67;;;;;11.03;89.65;99897.34;5100444;27;45425;-75
2021/12/26 10:02:11;;;;;;;;;19.00;17.67;;;;;11.09;89.28;99894.72;5099764;27;45691;-74
2021/12/26 10:04:38;;;;;;;;;20.33;19.67;;;;;11.13;89.49;99889.81;5089022;27;45658;-75
2021/12/26 10:07:13;;;;;;;;;23.33;19.00;;;;;11.12;89.68;99890.84;5097139;27;45382;-76
2021/12/26 10:09:41;;;;;;;;;22.33;19.00;;;;;11.21;89.39;99889.66;5090810;27;45366;-74
2021/12/26 10:12:07;;;;;;;;;24.33;20.00;;;;;11.27;89.46;99889.88;5097484;27;45451;-75
2021/12/26 10:14:35;;;;;;;;;23.67;23.33;;;;;11.32;89.29;99892.75;5088667;27;47086;-75
2021/12/26 10:17:11;;;;;;;;;24.33;23.33;;;;;11.30;89.49;99884.97;5088748;27;45224;-74
2021/12/26 10:19:44;;;;;;;;;23.00;19.67;;;;;11.30;89.65;99889.47;5095150;27;45725;-76
2021/12/26 10:22:11;;;;;;;;;20.00;18.33;;;;;11.30;89.41;99876.16;5092022;27;46181;-75
2021/12/26 10:24:41;;;;;;;;;21.33;20.00;;;;;11.37;89.26;99885.00;5090509;27;45610;-75
2021/12/26 10:27:10;;;;;;;;;18.33;17.67;;;;;11.36;88.98;99891.34;5095321;27;45657;-75
2021/12/26 10:29:38;;;;;;;;;20.00;20.00;;;;;11.34;89.18;99890.72;5088174;27;45228;-75
2021/12/26 10:32:10;;;;;;;;;23.67;20.33;;;;;11.32;88.91;99885.59;5090023;27;45293;-75
2021/12/26 10:34:58;;;;;;;;;22.00;20.00;;;;;11.23;89.00;99871.66;5093806;27;48203;-75
2021/12/26 10:37:28;;;;;;;;;21.33;19.67;;;;;11.31;88.94;99883.16;5095402;27;45265;-76
2021/12/26 10:40:06;;;;;;;;;18.00;17.00;;;;;11.30;89.45;99873.50;5094742;27;45298;-75
2021/12/26 10:42:34;;;;;;;;;18.00;17.67;;;;;11.29;89.31;99867.41;5080484;28;45311;-76
2021/12/26 10:45:04;;;;;;;;;25.00;22.00;;;;;11.30;89.16;99862.88;5080240;27;45316;-77
2021/12/26 10:47:33;;;;;;;;;26.33;23.00;;;;;11.20;89.34;99840.13;5080048;27;45406;-76
2021/12/26 10:50:06;;;;;;;;;21.67;16.00;;;;;11.32;89.51;99861.63;5080529;27;45279;-75
2021/12/26 10:52:35;;;;;;;;;19.00;17.67;;;;;11.27;89.35;99847.31;5080374;27;45590;-74
2021/12/26 10:55:05;;;;;;;;;17.00;15.33;;;;;11.36;89.27;99854.94;5080273;27;46443;-75
2021/12/26 10:57:36;;;;;;;;;19.67;18.00;;;;;11.36;89.14;99867.41;5080275;27;45301;-75
2021/12/26 11:00:12;;;;;;;;;18.00;18.00;;;;;11.30;89.44;99854.88;5086968;27;45483;-75
2021/12/26 11:02:40;;;;;;;;;19.67;18.00;;;;;11.32;89.37;99866.16;5086386;27;45292;-74
2021/12/26 11:05:18;;;;;;;;;16.33;16.33;;;;;11.26;89.45;99840.38;5109318;27;45938;-74
2021/12/26 11:07:50;;;;;;;;;17.67;16.67;;;;;11.27;89.34;99834.00;5112424;27;45965;-74
2021/12/26 11:10:23;;;;;;;;;18.00;18.00;;;;;11.35;89.51;99860.44;5100646;27;45226;-74
2021/12/26 11:12:52;;;;;;;;;20.33;17.33;;;;;11.35;89.67;99860.44;5098969;27;46107;-75
2021/12/26 11:15:19;;;;;;;;;18.67;18.00;;;;;11.28;89.84;99847.09;5100358;27;45176;-75
2021/12/26 11:17:51;;;;;;;;;19.67;16.00;;;;;11.26;89.46;99849.16;5100111;27;45306;-75
2021/12/26 11:20:23;;;;;;;;;18.00;18.00;;;;;11.35;89.69;99865.75;5100697;27;45242;-74
2021/12/26 11:22:48;;;;;;;;;17.67;16.00;;;;;11.25;89.79;99842.19;5100401;27;45336;-75
2021/12/26 11:25:14;;;;;;;;;16.00;16.00;;;;;11.24;89.58;99851.19;5096310;27;46993;-73